createdAt,value
2022-12-29T00:01:57.452Z,101437.90
2022-12-29T00:04:25.113Z,101425.30
2022-12-29T00:06:54.708Z,101426.02
2022-12-29T00:09:22.941Z,101434.04
2022-12-29T00:11:52.191Z,101427.50
2022-12-29T00:14:39.124Z,101423.70
2022-12-29T00:17:06.762Z,101433.38
2022-12-29T00:19:53.775Z,101431.62
2022-12-29T00:22:40.760Z,101422.59
2022-12-29T00:25:30.759Z,101413.96
2022-12-29T00:28:17.001Z,101415.89
2022-12-29T00:31:04.306Z,101410.13
2022-12-29T00:33:52.983Z,101399.41
2022-12-29T00:36:26.209Z,101412.29
2022-12-29T00:39:17.696Z,101407.68
2022-12-29T00:42:04.382Z,101399.90
2022-12-29T00:44:32.143Z,101399.80
2022-12-29T00:47:04.396Z,101400.95
2022-12-29T00:49:32.932Z,101382.70
2022-12-29T00:52:05.177Z,101389.14
2022-12-29T00:54:35.366Z,101373.70
2022-12-29T00:57:04.354Z,101384.98
2022-12-29T00:59:32.232Z,101387.84
2022-12-29T01:02:00.767Z,101389.76
2022-12-29T01:04:29.005Z,101386.85
2022-12-29T01:06:56.842Z,101399.48
2022-12-29T01:09:43.141Z,101415.27
2022-12-29T01:12:11.874Z,101404.25
2022-12-29T01:14:39.921Z,101403.01
2022-12-29T01:17:07.814Z,101393.62
2022-12-29T01:19:35.498Z,101404.51
2022-12-29T01:22:03.599Z,101404.90
2022-12-29T01:24:31.355Z,101394.30
2022-12-29T01:26:59.068Z,101398.33
2022-12-29T01:29:26.888Z,101395.02
2022-12-29T01:31:54.619Z,101398.23
2022-12-29T01:34:22.451Z,101408.70
2022-12-29T01:36:50.212Z,101398.13
2022-12-29T01:39:17.924Z,101404.18
2022-12-29T01:41:45.528Z,101404.54
2022-12-29T01:45:01.232Z,101402.02
2022-12-29T01:47:38.566Z,101410.56
2022-12-29T01:50:14.621Z,101408.89
2022-12-29T01:52:50.766Z,101399.54
2022-12-29T01:55:19.382Z,101407.81
2022-12-29T01:57:51.471Z,101399.70
2022-12-29T02:00:19.590Z,101394.38
2022-12-29T02:02:52.363Z,101388.88
2022-12-29T02:05:38.703Z,101380.28
2022-12-29T02:08:06.829Z,101367.46
2022-12-29T02:10:37.144Z,101366.12
2022-12-29T02:13:05.625Z,101361.45
2022-12-29T02:15:49.656Z,101355.16
2022-12-29T02:18:43.995Z,101348.20
2022-12-29T02:21:17.377Z,101355.46
2022-12-29T02:24:08.175Z,101347.80
2022-12-29T02:26:53.979Z,101359.19
2022-12-29T02:30:09.434Z,101358.14
2022-12-29T02:32:49.055Z,101357.06
2022-12-29T02:35:40.241Z,101356.84
2022-12-29T02:38:32.800Z,101356.38
2022-12-29T02:41:39.900Z,101359.13
2022-12-29T02:44:28.979Z,101345.95
2022-12-29T02:47:06.034Z,101346.30
2022-12-29T02:49:46.776Z,101348.69
2022-12-29T02:52:23.679Z,101349.80
2022-12-29T02:54:52.104Z,101349.38
2022-12-29T02:57:22.910Z,101342.37
2022-12-29T02:59:56.618Z,101336.55
2022-12-29T03:02:41.081Z,101348.30
2022-12-29T03:05:31.192Z,101345.78
2022-12-29T03:08:29.890Z,101336.27
2022-12-29T03:10:57.494Z,101340.58
2022-12-29T03:14:05.114Z,101333.48
2022-12-29T03:16:47.813Z,101341.59
2022-12-29T03:19:32.840Z,101341.10
2022-12-29T03:22:27.879Z,101339.41
2022-12-29T03:25:10.162Z,101338.00
2022-12-29T03:27:44.358Z,101331.36
2022-12-29T03:30:13.930Z,101328.97
2022-12-29T03:32:48.564Z,101335.48
2022-12-29T03:35:19.880Z,101329.76
2022-12-29T03:38:21.480Z,101326.91
2022-12-29T03:40:54.603Z,101329.43
2022-12-29T03:43:22.312Z,101332.73
2022-12-29T03:45:49.951Z,101331.66
2022-12-29T03:48:17.752Z,101331.66
2022-12-29T03:50:46.220Z,101324.79
2022-12-29T03:53:14.060Z,101312.55
2022-12-29T03:55:42.433Z,101335.88
2022-12-29T03:58:10.145Z,101337.60
2022-12-29T04:00:38.427Z,101333.95
2022-12-29T04:03:06.223Z,101341.40
2022-12-29T04:05:33.905Z,101335.38
2022-12-29T04:08:02.216Z,101341.53
2022-12-29T04:10:29.985Z,101344.51
2022-12-29T04:12:57.718Z,101332.44
2022-12-29T04:15:26.409Z,101347.48
2022-12-29T04:17:54.392Z,101340.65
2022-12-29T04:20:40.930Z,101336.20
2022-12-29T04:23:09.590Z,101338.29
2022-12-29T04:25:37.298Z,101338.72
2022-12-29T04:28:05.287Z,101338.39
2022-12-29T04:30:33.019Z,101333.16
2022-12-29T04:33:00.700Z,101332.05
2022-12-29T04:35:28.464Z,101345.81
2022-12-29T04:37:56.156Z,101349.48
2022-12-29T04:40:25.290Z,101350.75
2022-12-29T04:42:52.980Z,101358.17
2022-12-29T04:45:20.724Z,101351.66
2022-12-29T04:47:48.461Z,101348.04
2022-12-29T04:50:16.344Z,101342.31
2022-12-29T04:52:44.463Z,101340.38
2022-12-29T04:55:12.340Z,101342.12
2022-12-29T04:57:40.053Z,101337.67
2022-12-29T05:00:08.641Z,101343.36
2022-12-29T05:02:36.414Z,101344.27
2022-12-29T05:05:04.190Z,101343.95
2022-12-29T05:07:32.107Z,101341.23
2022-12-29T05:10:00.140Z,101339.30
2022-12-29T05:12:28.044Z,101335.31
2022-12-29T05:14:55.657Z,101336.23
2022-12-29T05:17:23.279Z,101331.45
2022-12-29T05:19:51.124Z,101326.68
2022-12-29T05:22:18.807Z,101335.38
2022-12-29T05:24:46.906Z,101342.34
2022-12-29T05:27:14.799Z,101338.36
2022-12-29T05:29:42.443Z,101336.40
2022-12-29T05:32:10.185Z,101336.88
2022-12-29T05:34:37.932Z,101345.55
2022-12-29T05:37:05.641Z,101340.29
2022-12-29T05:39:33.264Z,101346.92
2022-12-29T05:42:00.942Z,101355.91
2022-12-29T05:44:28.669Z,101347.38
2022-12-29T05:46:56.420Z,101349.77
2022-12-29T05:49:24.171Z,101358.76
2022-12-29T05:51:51.881Z,101357.52
2022-12-29T05:54:19.786Z,101351.14
2022-12-29T05:56:47.541Z,101345.91
2022-12-29T05:59:15.243Z,101351.27
2022-12-29T06:01:42.983Z,101356.31
2022-12-29T06:04:10.866Z,101347.74
2022-12-29T06:06:38.764Z,101345.35
2022-12-29T06:09:06.442Z,101343.88
2022-12-29T06:11:34.797Z,101346.73
2022-12-29T06:14:02.597Z,101354.94
2022-12-29T06:16:30.319Z,101348.10
2022-12-29T06:18:58.097Z,101336.36
2022-12-29T06:21:25.937Z,101343.33
2022-12-29T06:23:53.553Z,101341.73
2022-12-29T06:26:21.326Z,101340.58
2022-12-29T06:28:49.099Z,101339.80
2022-12-29T06:31:16.844Z,101349.12
2022-12-29T06:33:49.577Z,101340.91
2022-12-29T06:36:17.813Z,101342.87
2022-12-29T06:38:45.811Z,101346.73
2022-12-29T06:41:13.503Z,101350.16
2022-12-29T06:43:41.749Z,101355.82
2022-12-29T06:46:09.553Z,101340.71
2022-12-29T06:48:37.413Z,101350.49
2022-12-29T06:51:05.497Z,101350.59
2022-12-29T06:53:33.193Z,101338.78
2022-12-29T06:56:00.958Z,101350.62
2022-12-29T06:58:28.673Z,101340.38
2022-12-29T07:00:56.497Z,101339.20
2022-12-29T07:03:24.389Z,101340.52
2022-12-29T07:05:52.149Z,101331.26
2022-12-29T07:08:19.893Z,101340.68
2022-12-29T07:10:48.070Z,101337.51
2022-12-29T07:13:15.838Z,101344.24
2022-12-29T07:15:43.636Z,101343.16
2022-12-29T07:18:11.338Z,101339.20
2022-12-29T07:20:39.038Z,101348.46
2022-12-29T07:23:06.772Z,101340.98
2022-12-29T07:25:35.053Z,101336.72
2022-12-29T07:28:02.799Z,101327.99
2022-12-29T07:30:30.620Z,101335.64
2022-12-29T07:32:59.102Z,101340.88
2022-12-29T07:35:26.930Z,101350.09
2022-12-29T07:37:54.658Z,101346.47
2022-12-29T07:40:22.387Z,101347.91
2022-12-29T07:42:50.255Z,101345.35
2022-12-29T07:45:18.189Z,101341.92
2022-12-29T07:47:49.276Z,101341.73
2022-12-29T07:50:17.174Z,101355.88
2022-12-29T07:52:45.226Z,101353.34
2022-12-29T07:55:13.119Z,101357.20
2022-12-29T07:57:40.832Z,101365.10
2022-12-29T08:00:09.337Z,101365.79
2022-12-29T08:02:37.638Z,101371.35
2022-12-29T08:05:05.790Z,101370.86
2022-12-29T08:07:33.405Z,101369.13
2022-12-29T08:10:01.211Z,101371.22
2022-12-29T08:12:28.933Z,101369.78
2022-12-29T08:14:56.669Z,101370.77
2022-12-29T08:17:24.318Z,101374.75
2022-12-29T08:19:52.055Z,101377.47
2022-12-29T08:22:19.776Z,101378.88
2022-12-29T08:24:47.488Z,101378.88
2022-12-29T08:27:20.391Z,101391.43
2022-12-29T08:29:48.564Z,101387.63
2022-12-29T08:32:16.498Z,101388.42
2022-12-29T08:34:44.248Z,101403.04
2022-12-29T08:37:11.986Z,101400.48
2022-12-29T08:39:40.317Z,101400.36
2022-12-29T08:42:08.377Z,101398.46
2022-12-29T08:44:36.037Z,101399.08
2022-12-29T08:47:03.805Z,101404.80
2022-12-29T08:49:31.580Z,101402.45
2022-12-29T08:51:59.192Z,101396.73
2022-12-29T08:54:27.038Z,101400.65
2022-12-29T08:56:55.826Z,101398.63
2022-12-29T08:59:23.561Z,101411.18
2022-12-29T09:01:51.981Z,101404.64
2022-12-29T09:04:20.023Z,101407.06
2022-12-29T09:06:47.827Z,101401.17
2022-12-29T09:09:15.588Z,101407.52
2022-12-29T09:11:44.136Z,101410.69
2022-12-29T09:14:11.881Z,101420.40
2022-12-29T09:16:39.738Z,101415.46
2022-12-29T09:19:07.802Z,101414.68
2022-12-29T09:21:35.842Z,101418.30
2022-12-29T09:24:03.707Z,101419.13
2022-12-29T09:26:31.366Z,101425.47
2022-12-29T09:28:59.708Z,101415.13
2022-12-29T09:31:27.513Z,101415.46
2022-12-29T09:33:55.123Z,101407.68
2022-12-29T09:36:22.875Z,101415.82
2022-12-29T09:38:51.842Z,101430.48
2022-12-29T09:41:41.123Z,101421.38
2022-12-29T09:44:27.548Z,101431.39
2022-12-29T09:46:57.845Z,101415.17
2022-12-29T09:49:48.016Z,101418.80
2022-12-29T09:52:27.988Z,101418.30
2022-12-29T09:55:03.137Z,101409.71
2022-12-29T09:57:40.352Z,101419.06
2022-12-29T10:00:20.442Z,101406.14
2022-12-29T10:02:57.144Z,101389.11
2022-12-29T10:05:50.239Z,101401.99
2022-12-29T10:08:57.776Z,101402.58
2022-12-29T10:11:56.246Z,101397.02
2022-12-29T10:14:50.661Z,101394.77
2022-12-29T10:17:32.710Z,101387.57
2022-12-29T10:20:06.430Z,101399.18
2022-12-29T10:23:10.752Z,101388.81
2022-12-29T10:25:41.405Z,101374.10
2022-12-29T10:28:27.346Z,101371.71
2022-12-29T10:30:55.931Z,101371.81
2022-12-29T10:33:27.504Z,101374.49
2022-12-29T10:35:55.341Z,101364.91
2022-12-29T10:38:37.756Z,101356.80
2022-12-29T10:41:18.045Z,101375.41
2022-12-29T10:43:53.052Z,101370.14
2022-12-29T10:46:34.816Z,101354.05
2022-12-29T10:49:03.975Z,101356.57
2022-12-29T10:51:37.357Z,101356.05
2022-12-29T10:54:21.492Z,101354.58
2022-12-29T10:56:54.245Z,101349.48
2022-12-29T10:59:25.716Z,101349.57
2022-12-29T11:02:11.927Z,101351.47
2022-12-29T11:05:07.746Z,101343.30
2022-12-29T11:07:35.633Z,101341.23
2022-12-29T11:10:32.826Z,101329.46
2022-12-29T11:13:03.696Z,101341.56
2022-12-29T11:15:44.303Z,101338.59
2022-12-29T11:18:38.328Z,101334.59
2022-12-29T11:21:32.449Z,101335.61
2022-12-29T11:24:03.403Z,101335.61
2022-12-29T11:26:34.832Z,101338.65
2022-12-29T11:29:13.986Z,101328.74
2022-12-29T11:32:01.183Z,101337.08
2022-12-29T11:34:35.757Z,101332.44
2022-12-29T11:37:12.520Z,101333.23
2022-12-29T11:39:51.620Z,101324.13
2022-12-29T11:42:25.681Z,101318.37
2022-12-29T11:44:54.869Z,101309.77
2022-12-29T11:47:31.761Z,101316.61
2022-12-29T11:50:03.931Z,101315.20
2022-12-29T11:52:37.148Z,101305.33
2022-12-29T11:55:08.864Z,101293.27
2022-12-29T11:57:37.407Z,101292.25
2022-12-29T12:00:17.952Z,101290.98
2022-12-29T12:03:05.942Z,101292.25
2022-12-29T12:05:46.901Z,101289.41
2022-12-29T12:08:23.395Z,101276.03
2022-12-29T12:11:06.668Z,101286.40
2022-12-29T12:13:41.303Z,101291.66
2022-12-29T12:16:15.038Z,101293.43
2022-12-29T12:18:47.562Z,101286.79
2022-12-29T12:21:45.660Z,101292.22
2022-12-29T12:24:39.985Z,101290.81
2022-12-29T12:27:26.122Z,101284.80
2022-12-29T12:30:17.430Z,101285.25
2022-12-29T12:33:00.288Z,101271.42
2022-12-29T12:36:00.591Z,101278.41
2022-12-29T12:38:43.976Z,101283.39
2022-12-29T12:41:40.665Z,101276.85
2022-12-29T12:44:17.376Z,101265.56
2022-12-29T12:47:13.803Z,101279.40
2022-12-29T12:49:59.481Z,101281.16
2022-12-29T12:52:48.547Z,101273.84
2022-12-29T12:55:57.867Z,101275.45
2022-12-29T12:58:42.815Z,101262.39
2022-12-29T13:01:39.946Z,101265.56
2022-12-29T13:04:46.050Z,101264.59
2022-12-29T13:07:34.959Z,101261.22
2022-12-29T13:10:21.001Z,101261.02
2022-12-29T13:13:03.200Z,101265.80
2022-12-29T13:15:59.060Z,101253.04
2022-12-29T13:18:57.162Z,101253.83
2022-12-29T13:21:46.442Z,101246.50
2022-12-29T13:24:49.644Z,101242.35
2022-12-29T13:27:33.573Z,101245.52
2022-12-29T13:30:11.265Z,101236.04
2022-12-29T13:32:51.577Z,101233.00
2022-12-29T13:35:28.275Z,101240.13
2022-12-29T13:38:05.662Z,101228.42
2022-12-29T13:40:40.699Z,101231.91
2022-12-29T13:43:09.249Z,101225.67
2022-12-29T13:45:38.028Z,101225.48
2022-12-29T13:48:39.089Z,101233.78
2022-12-29T13:51:07.711Z,101230.64
2022-12-29T13:53:55.272Z,101231.40
2022-12-29T13:56:34.889Z,101229.23
2022-12-29T13:59:20.426Z,101233.09
2022-12-29T14:02:34.232Z,101240.62
2022-12-29T14:05:05.088Z,101237.64
2022-12-29T14:07:40.352Z,101251.34
2022-12-29T14:10:08.553Z,101248.37
2022-12-29T14:12:45.351Z,101247.32
2022-12-29T14:15:13.026Z,101238.88
2022-12-29T14:17:42.602Z,101235.91
2022-12-29T14:20:23.456Z,101232.12
2022-12-29T14:23:19.553Z,101235.68
2022-12-29T14:26:08.769Z,101231.88
2022-12-29T14:28:41.856Z,101234.47
2022-12-29T14:31:21.723Z,101234.63
2022-12-29T14:34:08.075Z,101240.06
2022-12-29T14:36:38.615Z,101237.37
2022-12-29T14:39:27.422Z,101235.52
2022-12-29T14:42:13.964Z,101232.64
2022-12-29T14:44:51.651Z,101228.98
2022-12-29T14:47:32.623Z,101235.97
2022-12-29T14:50:23.680Z,101238.55
2022-12-29T14:53:02.970Z,101236.17
2022-12-29T14:55:48.625Z,101243.98
2022-12-29T14:58:38.038Z,101245.26
2022-12-29T15:01:06.131Z,101250.20
2022-12-29T15:03:38.457Z,101249.91
2022-12-29T15:06:13.476Z,101248.79
2022-12-29T15:09:05.651Z,101255.04
2022-12-29T15:11:42.481Z,101255.98
2022-12-29T15:14:41.571Z,101264.26
2022-12-29T15:17:33.453Z,101259.22
2022-12-29T15:20:37.555Z,101260.01
2022-12-29T15:23:18.508Z,101260.98
2022-12-29T15:25:55.289Z,101266.71
2022-12-29T15:28:24.332Z,101265.60
2022-12-29T15:30:59.432Z,101273.41
2022-12-29T15:33:29.921Z,101269.91
2022-12-29T15:36:04.570Z,101261.02
2022-12-29T15:38:38.757Z,101260.73
2022-12-29T15:41:21.735Z,101267.40
2022-12-29T15:44:24.860Z,101269.95
2022-12-29T15:46:52.536Z,101267.76
2022-12-29T15:49:23.238Z,101262.98
2022-12-29T15:51:53.900Z,101261.41
2022-12-29T15:54:24.001Z,101256.64
2022-12-29T15:56:52.162Z,101280.54
2022-12-29T15:59:32.351Z,101285.97
2022-12-29T16:02:07.160Z,101294.54
2022-12-29T16:04:54.086Z,101298.70
2022-12-29T16:07:40.792Z,101308.53
2022-12-29T16:10:28.947Z,101313.96
2022-12-29T16:12:56.849Z,101313.67
2022-12-29T16:15:24.747Z,101303.95
2022-12-29T16:17:55.036Z,101299.18
2022-12-29T16:20:27.357Z,101311.77
2022-12-29T16:22:59.881Z,101318.61
2022-12-29T16:25:33.307Z,101315.27
2022-12-29T16:28:03.023Z,101325.31
2022-12-29T16:30:34.538Z,101330.38
2022-12-29T16:33:07.763Z,101337.54
2022-12-29T16:35:48.622Z,101337.70
2022-12-29T16:38:20.812Z,101335.80
2022-12-29T16:41:06.443Z,101335.48
2022-12-29T16:43:36.782Z,101332.63
2022-12-29T16:46:04.438Z,101323.74
2022-12-29T16:48:36.945Z,101324.20
2022-12-29T16:51:18.026Z,101326.26
2022-12-29T16:53:56.488Z,101342.18
2022-12-29T16:56:34.988Z,101328.35
2022-12-29T16:59:08.003Z,101332.47
2022-12-29T17:01:42.004Z,101339.17
2022-12-29T17:04:15.396Z,101335.97
2022-12-29T17:06:43.261Z,101335.64
2022-12-29T17:09:28.834Z,101336.13
2022-12-29T17:12:10.375Z,101332.18
2022-12-29T17:14:48.476Z,101335.19
2022-12-29T17:17:37.209Z,101336.91
2022-12-29T17:20:18.225Z,101341.86
2022-12-29T17:22:46.328Z,101346.47
2022-12-29T17:25:15.942Z,101341.53
2022-12-29T17:27:45.904Z,101340.41
2022-12-29T17:30:17.068Z,101342.48
2022-12-29T17:32:49.434Z,101345.32
2022-12-29T17:35:18.667Z,101343.88
2022-12-29T17:37:46.659Z,101351.83
2022-12-29T17:40:23.434Z,101360.40
2022-12-29T17:42:54.461Z,101363.24
2022-12-29T17:45:25.802Z,101366.09
2022-12-29T17:47:54.085Z,101380.18
2022-12-29T17:50:24.691Z,101388.09
2022-12-29T17:53:01.145Z,101389.30
2022-12-29T17:55:36.729Z,101386.55
2022-12-29T17:58:19.419Z,101386.63
2022-12-29T18:00:49.962Z,101384.66
2022-12-29T18:03:29.130Z,101352.55
2022-12-29T18:05:57.267Z,101360.59
2022-12-29T18:08:25.049Z,101367.49
2022-12-29T18:10:55.019Z,101368.41
2022-12-29T18:13:30.725Z,101364.22
2022-12-29T18:16:03.763Z,101373.70
2022-12-29T18:18:31.477Z,101374.95
2022-12-29T18:21:01.247Z,101362.88
2022-12-29T18:23:36.345Z,101378.88
2022-12-29T18:26:22.333Z,101373.18
2022-12-29T18:28:54.622Z,101369.52
2022-12-29T18:31:28.202Z,101371.25
2022-12-29T18:33:57.797Z,101367.13
2022-12-29T18:36:26.102Z,101374.10
2022-12-29T18:38:55.696Z,101376.16
2022-12-29T18:41:30.673Z,101382.66
2022-12-29T18:44:00.131Z,101388.35
2022-12-29T18:46:28.039Z,101381.06
2022-12-29T18:48:55.837Z,101381.52
2022-12-29T18:51:25.526Z,101390.58
2022-12-29T18:53:55.192Z,101395.12
2022-12-29T18:56:24.062Z,101394.44
2022-12-29T18:58:52.675Z,101389.34
2022-12-29T19:01:23.692Z,101380.57
2022-12-29T19:03:51.932Z,101374.55
2022-12-29T19:06:20.601Z,101386.06
2022-12-29T19:08:48.382Z,101383.77
2022-12-29T19:11:16.144Z,101394.08
2022-12-29T19:13:43.823Z,101405.13
2022-12-29T19:16:19.635Z,101414.62
2022-12-29T19:18:58.297Z,101428.09
2022-12-29T19:21:35.017Z,101421.68
2022-12-29T19:24:02.733Z,101425.02
2022-12-29T19:26:35.560Z,101418.18
2022-12-29T19:29:04.095Z,101397.09
2022-12-29T19:31:31.855Z,101393.06
2022-12-29T19:33:59.673Z,101377.70
2022-12-29T19:36:27.284Z,101392.87
2022-12-29T19:38:55.224Z,101385.91
2022-12-29T19:41:23.194Z,101390.80
2022-12-29T19:43:51.511Z,101386.72
2022-12-29T19:46:20.929Z,101380.21
2022-12-29T19:48:48.831Z,101384.30
2022-12-29T19:51:18.224Z,101373.70
2022-12-29T19:53:47.141Z,101380.21
2022-12-29T19:56:17.930Z,101384.30
2022-12-29T19:58:47.839Z,101384.79
2022-12-29T20:01:21.752Z,101381.00
2022-12-29T20:03:50.676Z,101390.80
2022-12-29T20:06:19.049Z,101385.91
2022-12-29T20:08:46.868Z,101365.17
2022-12-29T20:11:17.532Z,101372.46
2022-12-29T20:13:45.917Z,101372.46
2022-12-29T20:16:19.194Z,101378.48
2022-12-29T20:18:48.360Z,101368.34
2022-12-29T20:21:21.446Z,101375.96
2022-12-29T20:23:50.221Z,101372.79
2022-12-29T20:26:21.676Z,101377.56
2022-12-29T20:28:50.362Z,101377.56
2022-12-29T20:31:24.004Z,101379.95
2022-12-29T20:33:52.105Z,101388.06
2022-12-29T20:36:23.087Z,101389.66
2022-12-29T20:38:53.995Z,101381.09
2022-12-29T20:41:22.455Z,101394.44
2022-12-29T20:43:50.815Z,101396.04
2022-12-29T20:46:21.856Z,101399.21
2022-12-29T20:48:51.621Z,101401.73
2022-12-29T20:51:20.551Z,101400.95
2022-12-29T20:53:48.851Z,101396.95
2022-12-29T20:56:19.340Z,101387.15
2022-12-29T20:59:17.568Z,101388.42
2022-12-29T21:01:36.048Z,101390.45
2022-12-29T21:04:04.376Z,101383.98
2022-12-29T21:06:32.580Z,101390.94
2022-12-29T21:09:01.128Z,101393.42
2022-12-29T21:11:29.165Z,101393.88
2022-12-29T21:14:00.904Z,101388.98
2022-12-29T21:16:29.423Z,101387.38
2022-12-29T21:18:57.167Z,101400.39
2022-12-29T21:21:26.532Z,101404.02
2022-12-29T21:23:55.995Z,101407.32
2022-12-29T21:26:25.281Z,101410.16
2022-12-29T21:28:53.259Z,101410.16
2022-12-29T21:31:27.054Z,101418.73
2022-12-29T21:33:56.117Z,101420.80
2022-12-29T21:36:24.653Z,101424.09
2022-12-29T21:38:52.754Z,101431.39
2022-12-29T21:41:20.513Z,101439.17
2022-12-29T21:44:07.685Z,101441.20
2022-12-29T21:46:39.318Z,101449.77
2022-12-29T21:49:07.676Z,101445.32
2022-12-29T21:51:55.014Z,101451.83
2022-12-29T21:54:45.266Z,101457.16
2022-12-29T21:57:34.719Z,101460.82
2022-12-29T22:00:21.429Z,101462.88
2022-12-29T22:03:08.066Z,101467.30
2022-12-29T22:05:54.278Z,101472.23
2022-12-29T22:08:40.788Z,101467.78
2022-12-29T22:11:28.389Z,101470.63
2022-12-29T22:13:56.969Z,101472.23
2022-12-29T22:16:26.403Z,101475.08
2022-12-29T22:18:54.453Z,101482.83
2022-12-29T22:21:22.274Z,101477.92
2022-12-29T22:23:49.966Z,101480.77
2022-12-29T22:26:17.737Z,101488.52
2022-12-29T22:28:47.407Z,101494.24
2022-12-29T22:31:31.747Z,101494.70
2022-12-29T22:34:02.411Z,101498.66
2022-12-29T22:36:30.875Z,101506.44
2022-12-29T22:38:58.523Z,101507.22
2022-12-29T22:41:26.253Z,101516.15
2022-12-29T22:43:54.024Z,101516.15
2022-12-29T22:46:21.750Z,101522.63
2022-12-29T22:48:49.591Z,101518.99
2022-12-29T22:51:17.265Z,101523.87
2022-12-29T22:53:46.569Z,101522.30
2022-12-29T22:56:15.603Z,101533.25
2022-12-29T22:58:44.889Z,101528.45
2022-12-29T23:01:17.148Z,101532.53
2022-12-29T23:03:45.684Z,101538.58
2022-12-29T23:06:15.547Z,101531.74
2022-12-29T23:08:44.230Z,101540.87
2022-12-29T23:11:14.033Z,101542.44
2022-12-29T23:13:43.281Z,101540.09
2022-12-29T23:16:10.985Z,101537.99
2022-12-29T23:18:38.820Z,101538.81
2022-12-29T23:21:07.188Z,101542.44
2022-12-29T23:23:53.974Z,101540.87
2022-12-29T23:26:31.972Z,101537.24
2022-12-29T23:29:01.479Z,101533.55
2022-12-29T23:31:30.944Z,101536.84
2022-12-29T23:34:00.140Z,101535.24
2022-12-29T23:36:28.590Z,101549.99
2022-12-29T23:38:56.785Z,101535.41
2022-12-29T23:41:25.237Z,101544.40
2022-12-29T23:43:53.376Z,101547.67
2022-12-29T23:46:24.957Z,101548.16
2022-12-29T23:48:52.879Z,101547.02
2022-12-29T23:51:20.934Z,101554.41
2022-12-29T23:53:48.824Z,101566.24
2022-12-29T23:56:21.058Z,101564.64
2022-12-29T23:58:48.902Z,101568.40
